Time;durP1;ratioP1;P1;durP2;ratioP2;P2;SDS_P1;SDS_P2;PMS_P1;PMS_P2;Temp;Humidity;BMP_temperature;BMP_pressure;BME280_temperature;BME280_humidity;BME280_pressure;Samples;Min_cycle;Max_cycle;Signal;HPM_P1;HPM_P2
2022/10/05 00:01:32;;;;;;;1.33;1.15;;;;;;;-141.23;100.00;62281.09;5096317;28;20039;-72
2022/10/05 00:04:21;;;;;;;2.80;1.40;;;;;;;-141.23;100.00;62281.09;5079090;28;20043;-72
2022/10/05 00:06:56;;;;;;;1.20;1.10;;;;;;;-141.23;100.00;62281.09;5062812;28;20040;-71
2022/10/05 00:09:22;;;;;;;2.38;1.20;;;;;;;-141.23;100.00;62281.09;5079710;28;20043;-72
2022/10/05 00:11:49;;;;;;;1.38;1.05;;;;;;;-141.23;100.00;62281.09;5095960;28;20036;-72
2022/10/05 00:14:34;;;;;;;1.38;1.13;;;;;;;-141.23;100.00;62281.09;5096063;28;20053;-72
2022/10/05 00:17:01;;;;;;;1.00;0.90;;;;;;;-141.23;100.00;62281.09;5061996;28;20506;-72
2022/10/05 00:19:35;;;;;;;3.72;1.00;;;;;;;-141.23;100.00;62281.09;5079026;28;20466;-72
2022/10/05 00:22:15;;;;;;;1.25;1.00;;;;;;;-141.23;100.00;62281.09;5062429;28;20090;-72
2022/10/05 00:24:41;;;;;;;1.45;1.15;;;;;;;-141.23;100.00;62281.09;5062279;28;20089;-72
2022/10/05 00:27:31;;;;;;;1.45;1.02;;;;;;;-141.23;100.00;62281.09;5078121;28;20047;-73
2022/10/05 00:30:01;;;;;;;1.67;1.38;;;;;;;-141.23;100.00;62281.09;5061966;28;20067;-72
2022/10/05 00:32:29;;;;;;;2.60;1.10;;;;;;;-141.23;100.00;62281.09;5079716;28;20375;-72
2022/10/05 00:34:56;;;;;;;1.60;1.10;;;;;;;-141.23;100.00;62281.09;5046094;28;20051;-74
2022/10/05 00:37:22;;;;;;;1.65;1.10;;;;;;;-141.23;100.00;62281.09;5097630;28;20040;-73
2022/10/05 00:39:49;;;;;;;1.25;1.15;;;;;;;-141.23;100.00;62281.09;5079940;28;20044;-72
2022/10/05 00:42:44;;;;;;;4.25;1.30;;;;;;;-141.23;100.00;62281.09;5078215;28;20036;-72
2022/10/05 00:45:18;;;;;;;2.58;1.20;;;;;;;-141.23;100.00;62281.09;5077394;28;20074;-72
2022/10/05 00:48:05;;;;;;;1.67;1.17;;;;;;;-141.23;100.00;62281.09;5078250;28;20461;-73
2022/10/05 00:50:57;;;;;;;1.58;1.08;;;;;;;-141.23;100.00;62281.09;5061185;28;20561;-72
2022/10/05 00:53:29;;;;;;;6.40;1.10;;;;;;;-141.23;100.00;62281.09;5067328;28;20478;-72
2022/10/05 00:56:23;;;;;;;3.75;1.23;;;;;;;-141.23;100.00;62281.09;5113077;28;20047;-72
2022/10/05 00:59:04;;;;;;;1.10;1.00;;;;;;;-141.23;100.00;62281.09;5078190;28;20405;-72
2022/10/05 01:01:51;;;;;;;1.27;1.20;;;;;;;-141.23;100.00;62281.09;5095086;28;20704;-72
2022/10/05 01:04:24;;;;;;;1.50;1.38;;;;;;;-141.23;100.00;62281.09;5078334;28;20051;-72
2022/10/05 01:07:03;;;;;;;1.33;1.17;;;;;;;-141.23;100.00;62281.09;5078151;28;20048;-71
2022/10/05 01:09:43;;;;;;;2.88;1.20;;;;;;;-141.23;100.00;62281.09;5080898;28;20454;-72
2022/10/05 01:12:30;;;;;;;1.20;1.10;;;;;;;-141.23;100.00;62281.09;5065758;28;20043;-72
2022/10/05 01:15:23;;;;;;;3.28;1.20;;;;;;;-141.23;100.00;62281.09;5061684;28;20063;-71
2022/10/05 01:18:15;;;;;;;2.10;1.23;;;;;;;-141.23;100.00;62281.09;5077672;28;20047;-72
2022/10/05 01:20:58;;;;;;;1.40;1.30;;;;;;;-141.23;100.00;62281.09;5078189;28;20096;-71
2022/10/05 01:23:46;;;;;;;3.38;1.38;;;;;;;-141.23;100.00;62281.09;5075292;28;20059;-71
2022/10/05 01:26:41;;;;;;;2.53;1.27;;;;;;;-141.23;100.00;62281.09;5074961;28;20528;-72
2022/10/05 01:29:33;;;;;;;1.35;1.25;;;;;;;-141.23;100.00;62281.09;5057545;28;20111;-71
2022/10/05 01:32:00;;;;;;;2.10;1.23;;;;;;;-141.23;100.00;62281.09;5048281;28;20051;-72
2022/10/05 01:34:40;;;;;;;1.40;1.30;;;;;;;-141.23;100.00;62281.09;5056771;28;20452;-71
2022/10/05 01:37:30;;;;;;;1.77;1.40;;;;;;;-141.23;100.00;62281.09;5039717;28;20039;-72
2022/10/05 01:40:05;;;;;;;1.40;1.20;;;;;;;-141.23;100.00;62281.09;5077264;28;20139;-71
2022/10/05 01:42:52;;;;;;;2.50;1.40;;;;;;;-141.23;100.00;62281.09;5077489;28;20044;-71
2022/10/05 01:45:58;;;;;;;3.15;1.45;;;;;;;-141.23;100.00;62281.09;5094582;28;20499;-71
2022/10/05 01:48:49;;;;;;;2.95;1.40;;;;;;;-141.23;100.00;62281.09;5091418;28;20471;-71
2022/10/05 01:51:34;;;;;;;1.35;1.20;;;;;;;-141.23;100.00;62281.09;5060533;28;20439;-71
2022/10/05 01:54:21;;;;;;;4.47;1.38;;;;;;;-141.23;100.00;62281.09;5078159;28;20039;-73
2022/10/05 01:57:26;;;;;;;4.05;1.60;;;;;;;-141.23;100.00;62281.09;5095680;28;20043;-71
2022/10/05 02:00:21;;;;;;;2.67;1.40;;;;;;;-141.23;100.00;62281.09;5048690;28;20036;-71
2022/10/05 02:02:51;;;;;;;2.70;1.50;;;;;;;-141.23;100.00;62281.09;5092697;28;20048;-71
2022/10/05 02:05:30;;;;;;;2.28;1.50;;;;;;;-141.23;100.00;62281.09;5096138;28;20097;-71
2022/10/05 02:07:59;;;;;;;2.70;1.55;;;;;;;-141.23;100.00;62281.09;5078267;28;20100;-71
2022/10/05 02:10:35;;;;;;;5.03;1.67;;;;;;;-141.23;100.00;62281.09;5092184;28;20054;-71
2022/10/05 02:13:17;;;;;;;4.03;1.92;;;;;;;-141.23;100.00;62281.09;5058593;28;20134;-73
2022/10/05 02:16:16;;;;;;;3.97;1.98;;;;;;;-141.23;100.00;62281.09;5057222;28;20044;-71
2022/10/05 02:19:15;;;;;;;1.90;1.70;;;;;;;-141.23;100.00;62281.09;5057496;28;20028;-70
2022/10/05 02:21:43;;;;;;;;;;;;;;;-141.23;100.00;62281.09;5061277;28;20063;-70
2022/10/05 02:24:17;;;;;;;2.15;1.85;;;;;;;-141.23;100.00;62281.09;5081628;28;19920;-73
2022/10/05 02:26:44;;;;;;;4.45;2.20;;;;;;;-141.23;100.00;62281.09;5081638;28;20044;-72
2022/10/05 02:29:12;;;;;;;3.17;2.08;;;;;;;-141.23;100.00;62281.09;5096965;28;20036;-72
2022/10/05 02:31:54;;;;;;;3.70;2.10;;;;;;;-141.23;100.00;62281.09;5064582;28;20040;-72
2022/10/05 02:34:30;;;;;;;5.28;2.05;;;;;;;-141.23;100.00;62281.09;5081086;28;20096;-73
2022/10/05 02:37:27;;;;;;;4.78;2.20;;;;;;;-141.23;100.00;62281.09;5064595;28;20107;-72
2022/10/05 02:40:09;;;;;;;2.55;2.35;;;;;;;-141.23;100.00;62281.09;5078242;28;20138;-72
2022/10/05 02:42:47;;;;;;;;;;;;;;;-141.23;100.00;62281.09;5062871;28;20129;-73
2022/10/05 02:45:25;;;;;;;3.72;2.38;;;;;;;-141.23;100.00;62281.09;5080597;28;19922;-71
2022/10/05 02:48:18;;;;;;;8.27;2.58;;;;;;;-141.23;100.00;62281.09;5081277;28;20040;-73
2022/10/05 02:50:52;;;;;;;2.88;2.35;;;;;;;-141.23;100.00;62281.09;5063708;28;20071;-72
2022/10/05 02:53:24;;;;;;;4.28;2.40;;;;;;;-141.23;100.00;62281.09;5081458;28;20065;-72
2022/10/05 02:56:02;;;;;;;7.15;2.85;;;;;;;-141.23;100.00;62281.09;5097443;28;20217;-72
2022/10/05 02:58:53;;;;;;;2.78;2.38;;;;;;;-141.23;100.00;62281.09;5080446;28;20044;-73
2022/10/05 03:01:26;;;;;;;5.95;2.95;;;;;;;-141.23;100.00;62281.09;5114588;28;20092;-72
2022/10/05 03:04:20;;;;;;;3.50;2.53;;;;;;;-141.23;100.00;62281.09;5063873;28;20039;-72
2022/10/05 03:07:11;;;;;;;4.03;3.22;;;;;;;-141.23;100.00;62281.09;5064009;28;20500;-72
2022/10/05 03:10:01;;;;;;;4.18;3.13;;;;;;;-141.23;100.00;62281.09;5096524;28;20043;-72
2022/10/05 03:12:44;;;;;;;7.85;4.10;;;;;;;-141.23;100.00;62281.09;5097941;28;20197;-72
2022/10/05 03:15:55;;;;;;;4.95;3.45;;;;;;;-141.23;100.00;62281.09;5063822;28;20048;-72
2022/10/05 03:18:40;;;;;;;4.00;2.90;;;;;;;-141.23;100.00;62281.09;5092416;28;20132;-72
2022/10/05 03:21:33;;;;;;;4.03;2.90;;;;;;;-141.23;100.00;62281.09;5063412;28;20116;-72
2022/10/05 03:24:42;;;;;;;5.15;3.33;;;;;;;-141.23;100.00;62281.09;5079543;28;20039;-73
2022/10/05 03:27:27;;;;;;;8.73;3.55;;;;;;;-141.23;100.00;62281.09;5079373;28;20047;-72
2022/10/05 03:30:16;;;;;;;5.30;3.53;;;;;;;-141.23;100.00;62281.09;5096854;28;20047;-72
2022/10/05 03:33:06;;;;;;;9.48;3.70;;;;;;;-141.23;100.00;62281.09;5063471;28;20043;-71
2022/10/05 03:35:45;;;;;;;5.25;3.45;;;;;;;-141.23;100.00;62281.09;5080436;28;20043;-72
2022/10/05 03:38:18;;;;;;;3.67;3.17;;;;;;;-141.23;100.00;62281.09;5079420;28;20054;-75
2022/10/05 03:41:05;;;;;;;6.22;3.92;;;;;;;-141.23;100.00;62281.09;5062160;28;20047;-73
2022/10/05 03:43:35;;;;;;;7.35;3.90;;;;;;;-141.23;100.00;62281.09;5062967;28;20047;-74
2022/10/05 03:46:16;;;;;;;6.03;3.57;;;;;;;-141.23;100.00;62281.09;5062749;28;20052;-73
2022/10/05 03:49:10;;;;;;;6.45;3.95;;;;;;;-141.23;100.00;62281.09;5062452;28;20104;-73
2022/10/05 03:51:50;;;;;;;8.02;3.47;;;;;;;-141.23;100.00;62281.09;5114072;28;20071;-73
2022/10/05 03:54:38;;;;;;;5.15;3.20;;;;;;;-141.23;100.00;62281.09;5078966;28;20485;-73
2022/10/05 03:57:12;;;;;;;6.57;3.90;;;;;;;-141.23;100.00;62281.09;5079163;28;20047;-73
2022/10/05 03:59:59;;;;;;;4.80;4.05;;;;;;;-141.23;100.00;62281.09;5062733;28;20058;-73
2022/10/05 04:03:03;;;;;;;5.07;3.70;;;;;;;-141.23;100.00;62281.09;5046303;28;20500;-73
2022/10/05 04:05:41;;;;;;;5.07;3.80;;;;;;;-141.23;100.00;62281.09;5062280;28;20059;-72
2022/10/05 04:08:25;;;;;;;6.60;3.60;;;;;;;-141.23;100.00;62281.09;5078710;28;20050;-75
2022/10/05 04:10:56;;;;;;;6.15;3.97;;;;;;;-141.23;100.00;62281.09;5061966;28;20119;-75
2022/10/05 04:13:27;;;;;;;5.95;4.20;;;;;;;-141.23;100.00;62281.09;5095958;28;20043;-74
2022/10/05 04:16:00;;;;;;;6.18;4.45;;;;;;;-141.23;100.00;62281.09;5078993;28;20443;-69
2022/10/05 04:18:41;;;;;;;6.78;3.88;;;;;;;-141.23;100.00;62281.09;5079561;28;20051;-67
2022/10/05 04:21:29;;;;;;;7.07;4.10;;;;;;;-141.23;100.00;62281.09;5078880;28;20062;-69
2022/10/05 04:23:59;;;;;;;5.45;4.07;;;;;;;-141.23;100.00;62281.09;5062189;28;20043;-69
2022/10/05 04:26:50;;;;;;;11.63;4.78;;;;;;;-141.23;100.00;62281.09;5078270;28;20051;-69
2022/10/05 04:29:37;;;;;;;6.95;4.53;;;;;;;-141.23;100.00;62281.09;5094758;28;20463;-69
2022/10/05 04:32:34;;;;;;;7.13;4.20;;;;;;;-141.23;100.00;62281.09;5061707;28;20054;-69
2022/10/05 04:35:10;;;;;;;4.47;3.97;;;;;;;-141.23;100.00;62281.09;5095505;28;20043;-68
2022/10/05 04:37:44;;;;;;;6.35;4.32;;;;;;;-141.23;100.00;62281.09;5062043;28;20146;-69
2022/10/05 04:40:32;;;;;;;8.13;4.05;;;;;;;-141.23;100.00;62281.09;5078809;28;20044;-75
2022/10/05 04:43:04;;;;;;;6.30;4.47;;;;;;;-141.23;100.00;62281.09;5078389;28;20055;-68
2022/10/05 04:45:39;;;;;;;7.93;4.43;;;;;;;-141.23;100.00;62281.09;5062507;28;20055;-68
2022/10/05 04:48:14;;;;;;;5.38;4.65;;;;;;;-141.23;100.00;62281.09;5061762;28;20104;-69
2022/10/05 04:51:06;;;;;;;7.45;4.30;;;;;;;-141.23;100.00;62281.09;5071740;28;20909;-69
2022/10/05 04:53:47;;;;;;;5.63;4.25;;;;;;;-141.23;100.00;62281.09;5030299;28;20040;-69
2022/10/05 04:56:19;;;;;;;9.23;5.20;;;;;;;-141.23;100.00;62281.09;5057063;28;20418;-69
2022/10/05 04:59:37;;;;;;;8.05;4.93;;;;;;;-141.23;100.00;62281.09;5055622;28;20481;-69
2022/10/05 05:02:27;;;;;;;5.57;4.35;;;;;;;-141.23;100.00;62281.09;5011539;28;20043;-70
2022/10/05 05:05:12;;;;;;;5.80;4.50;;;;;;;-141.23;100.00;62281.09;5038624;28;20699;-69
2022/10/05 05:07:40;;;;;;;9.23;4.80;;;;;;;-141.23;100.00;62281.09;5038753;28;20043;-70
2022/10/05 05:10:25;;;;;;;6.93;4.50;;;;;;;-141.23;100.00;62281.09;5055894;28;20339;-70
2022/10/05 05:12:54;;;;;;;8.85;4.40;;;;;;;-141.23;100.00;62281.09;5054926;28;20047;-70
2022/10/05 05:15:32;;;;;;;5.13;4.40;;;;;;;-141.23;100.00;62281.09;5074541;28;20082;-71
2022/10/05 05:18:25;;;;;;;8.32;4.60;;;;;;;-141.23;100.00;62281.09;5057175;28;20044;-71
2022/10/05 05:21:15;;;;;;;6.30;4.85;;;;;;;-141.23;100.00;62281.09;5057207;28;20083;-71
2022/10/05 05:23:48;;;;;;;9.50;4.75;;;;;;;-141.23;100.00;62281.09;5056492;28;20528;-71
2022/10/05 05:26:28;;;;;;;8.77;4.68;;;;;;;-141.23;100.00;62281.09;5040734;28;20048;-70
2022/10/05 05:29:09;;;;;;;5.75;4.60;;;;;;;-141.23;100.00;62281.09;5073777;28;20138;-70
2022/10/05 05:31:44;;;;;;;9.10;4.93;;;;;;;-141.23;100.00;62281.09;5040797;28;20509;-71
2022/10/05 05:34:32;;;;;;;10.07;5.00;;;;;;;-141.23;100.00;62281.09;5023686;28;20403;-71
2022/10/05 05:37:15;;;;;;;6.88;4.50;;;;;;;-141.23;100.00;62281.09;5056752;28;20117;-70
2022/10/05 05:40:16;;;;;;;9.75;4.88;;;;;;;-141.23;100.00;62281.09;5057191;28;20101;-70
2022/10/05 05:42:59;;;;;;;10.43;5.93;;;;;;;-141.23;100.00;62281.09;5070655;28;20044;-70
2022/10/05 05:45:47;;;;;;;11.18;4.90;;;;;;;-141.23;100.00;62281.09;5077710;28;20059;-71
2022/10/05 05:48:25;;;;;;;9.32;5.38;;;;;;;-141.23;100.00;62281.09;5045380;28;20512;-70
2022/10/05 05:51:02;;;;;;;16.75;5.85;;;;;;;-141.23;100.00;62281.09;5078712;28;20047;-70
2022/10/05 05:53:36;;;;;;;8.23;4.03;;;;;;;-141.23;100.00;62281.09;5095271;28;20036;-69
2022/10/05 05:56:14;;;;;;;6.75;4.47;;;;;;;-141.23;100.00;62281.09;5078798;28;20121;-70
2022/10/05 05:58:46;;;;;;;5.90;3.40;;;;;;;-141.23;100.00;62281.09;5060611;28;20201;-70
2022/10/05 06:01:31;;;;;;;4.57;2.38;;;;;;;-141.23;100.00;62281.09;5059910;28;20378;-70
2022/10/05 06:04:08;;;;;;;4.75;2.30;;;;;;;-141.23;100.00;62281.09;5073628;28;20040;-69
2022/10/05 06:06:41;;;;;;;3.10;1.98;;;;;;;-141.23;100.00;62281.09;5040435;28;20048;-69
2022/10/05 06:09:18;;;;;;;2.72;2.20;;;;;;;-141.23;100.00;62281.09;5057998;28;20375;-69
2022/10/05 06:12:11;;;;;;;2.67;2.10;;;;;;;-141.23;100.00;62281.09;5056071;28;20047;-71
2022/10/05 06:14:51;;;;;;;4.20;2.47;;;;;;;-141.23;100.00;62281.09;5073761;28;20159;-68
2022/10/05 06:17:26;;;;;;;2.20;1.95;;;;;;;-141.23;100.00;62281.09;5073143;28;20078;-70
2022/10/05 06:19:56;;;;;;;3.78;1.60;;;;;;;-141.23;100.00;62281.09;5040338;28;20124;-70
2022/10/05 06:22:40;;;;;;;1.90;1.42;;;;;;;-141.23;100.00;62281.09;5057809;28;20077;-70
2022/10/05 06:25:11;;;;;;;1.98;1.50;;;;;;;-141.23;100.00;62281.09;5059087;28;20040;-70
2022/10/05 06:28:01;;;;;;;1.20;1.10;;;;;;;-141.23;100.00;62281.09;5077259;28;20138;-69
2022/10/05 06:30:53;;;;;;;1.05;0.95;;;;;;;-141.23;100.00;62281.09;5076604;28;20047;-70
2022/10/05 06:33:38;;;;;;;;;;;;;;;-141.23;100.00;62281.09;5060571;28;20071;-70
2022/10/05 06:36:20;;;;;;;3.42;1.63;;;;;;;-141.23;100.00;62281.09;5062813;28;20071;-71
2022/10/05 06:39:00;;;;;;;4.57;2.22;;;;;;;-141.23;100.00;62281.09;5043679;28;20042;-70
2022/10/05 06:41:53;;;;;;;2.35;1.05;;;;;;;-141.23;100.00;62281.09;5075936;28;20036;-70
2022/10/05 06:44:34;;;;;;;0.90;0.90;;;;;;;-141.23;100.00;62281.09;5077674;28;20051;-69
2022/10/05 06:47:22;;;;;;;0.80;0.80;;;;;;;-141.23;100.00;62281.09;5093160;28;20043;-72
2022/10/05 06:50:17;;;;;;;0.70;0.70;;;;;;;-141.23;100.00;62281.09;5053443;28;20148;-70
2022/10/05 06:53:39;;;;;;;1.00;1.00;;;;;;;-141.23;100.00;62281.09;5063680;28;20082;-70
2022/10/05 06:56:14;;;;;;;1.55;1.15;;;;;;;-141.23;100.00;62281.09;5062303;28;20044;-70
2022/10/05 06:58:49;;;;;;;1.02;0.93;;;;;;;-141.23;100.00;62281.09;5079233;28;20043;-69
2022/10/05 07:01:33;;;;;;;0.90;0.90;;;;;;;-141.23;100.00;62281.09;5081093;28;20485;-70
2022/10/05 07:04:05;;;;;;;1.88;1.27;;;;;;;-141.23;100.00;62281.09;5081895;28;20401;-70
2022/10/05 07:06:33;;;;;;;1.52;1.05;;;;;;;-141.23;100.00;62281.09;5064078;28;20044;-70
2022/10/05 07:09:17;;;;;;;1.00;0.90;;;;;;;-141.23;100.00;62281.09;5062630;28;20458;-70
2022/10/05 07:11:46;;;;;;;1.20;1.10;;;;;;;-141.23;100.00;62281.09;5062145;28;20375;-70
2022/10/05 07:14:14;;;;;;;1.45;1.15;;;;;;;-141.23;100.00;62281.09;5061398;28;20052;-70
2022/10/05 07:16:50;;;;;;;2.83;1.10;;;;;;;-141.23;100.00;62281.09;5058882;28;20360;-69
2022/10/05 07:19:21;;;;;;;1.10;1.00;;;;;;;-141.23;100.00;62281.09;5060660;28;20040;-71
2022/10/05 07:22:02;;;;;;;2.08;0.85;;;;;;;-141.23;100.00;62281.09;5053732;28;20363;-69
2022/10/05 07:24:34;;;;;;;;;;;;;;;-141.23;100.00;62281.09;5111218;28;20107;-70
2022/10/05 07:27:18;;;;;;;4.78;1.10;;;;;;;-141.23;100.00;62281.09;5072537;28;19920;-70
2022/10/05 07:29:51;;;;;;;0.88;0.82;;;;;;;-141.23;100.00;62281.09;5076781;28;20036;-69
2022/10/05 07:32:51;;;;;;;0.93;0.82;;;;;;;-141.23;100.00;62281.09;5076155;28;20079;-71
2022/10/05 07:38:31;;;;;;;1.27;0.90;;;;;;;-141.23;100.00;62281.09;5094635;28;20053;-72
2022/10/05 07:41:02;;;;;;;1.00;0.85;;;;;;;-141.23;100.00;62281.09;5069231;28;20031;-72
2022/10/05 07:43:43;;;;;;;2.13;1.00;;;;;;;-141.23;100.00;62281.09;5072146;28;20183;-72
2022/10/05 07:46:33;;;;;;;1.00;0.90;;;;;;;-141.23;100.00;62281.09;5042583;28;20469;-73
2022/10/05 07:49:05;;;;;;;1.52;0.90;;;;;;;-141.23;100.00;62281.09;5074824;28;20044;-71
2022/10/05 07:51:44;;;;;;;1.23;0.80;;;;;;;-141.23;100.00;62281.09;5057797;28;20043;-73
2022/10/05 07:54:26;;;;;;;1.98;0.82;;;;;;;-141.23;100.00;62281.09;5058318;28;20123;-73
2022/10/05 07:57:15;;;;;;;0.90;0.80;;;;;;;-141.23;100.00;62281.09;5042005;28;20075;-72
2022/10/05 07:59:55;;;;;;;2.22;0.90;;;;;;;-141.23;100.00;62281.09;5075575;28;20052;-72
2022/10/05 08:02:33;;;;;;;1.88;1.00;;;;;;;-141.23;100.00;62281.09;5074883;28;20482;-66
2022/10/05 08:05:28;;;;;;;2.83;1.10;;;;;;;-141.23;100.00;62281.09;5057852;28;20051;-66
2022/10/05 08:08:02;;;;;;;1.67;1.20;;;;;;;-141.23;100.00;62281.09;5053486;28;20216;-66
2022/10/05 08:10:33;;;;;;;2.72;1.08;;;;;;;-141.23;100.00;62281.09;5092930;28;20070;-66
2022/10/05 08:13:18;;;;;;;;;;;;;;;-141.23;100.00;62281.09;5058810;28;20044;-66
2022/10/05 08:15:47;;;;;;;2.05;1.13;;;;;;;-141.23;100.00;62281.09;5092655;28;19923;-65
2022/10/05 08:18:33;;;;;;;1.30;1.00;;;;;;;-141.23;100.00;62281.09;5074150;28;20044;-66
2022/10/05 08:20:59;;;;;;;2.17;1.23;;;;;;;-141.23;100.00;62281.09;5065449;28;20027;-70
2022/10/05 08:23:30;;;;;;;1.20;1.00;;;;;;;-141.23;100.00;62281.09;5093534;28;20048;-70
2022/10/05 08:26:04;;;;;;;1.95;1.00;;;;;;;-141.23;100.00;62281.09;5060588;28;20046;-68
2022/10/05 08:28:36;;;;;;;1.10;0.80;;;;;;;-141.23;100.00;62281.09;5077614;28;20035;-69
2022/10/05 08:31:22;;;;;;;4.07;1.02;;;;;;;-141.23;100.00;62281.09;5076110;28;20047;-69
2022/10/05 08:33:59;;;;;;;1.75;1.00;;;;;;;-141.23;100.00;62281.09;5058719;28;20139;-69
2022/10/05 08:36:37;;;;;;;0.80;0.80;;;;;;;-141.23;100.00;62281.09;5093083;28;20055;-69
2022/10/05 08:39:17;;;;;;;1.38;1.27;;;;;;;-141.23;100.00;62281.09;5077207;28;20149;-69
2022/10/05 08:42:02;;;;;;;1.45;1.30;;;;;;;-141.23;100.00;62281.09;5077155;28;20107;-69
2022/10/05 08:44:55;;;;;;;1.63;0.90;;;;;;;-141.23;100.00;62281.09;5060614;28;20112;-69
2022/10/05 08:48:18;;;;;;;2.30;1.00;;;;;;;-141.23;100.00;62281.09;5077948;28;20051;-69
2022/10/05 08:51:05;;;;;;;2.72;1.65;;;;;;;-141.23;100.00;62281.09;4961865;28;20065;-69
2022/10/05 08:53:31;;;;;;;3.05;1.10;;;;;;;-141.23;100.00;62281.09;4961209;28;20045;-69
2022/10/05 08:56:03;;;;;;;2.53;1.30;;;;;;;-141.23;100.00;62281.09;5051394;28;20096;-69
2022/10/05 08:58:47;;;;;;;1.00;0.70;;;;;;;-141.23;100.00;62281.09;5060562;28;20035;-70
2022/10/05 09:01:30;;;;;;;0.80;0.60;;;;;;;-141.23;100.00;62281.09;5077204;28;20035;-70
2022/10/05 09:04:23;;;;;;;1.55;0.80;;;;;;;-141.23;100.00;62281.09;5076370;28;20057;-70
2022/10/05 09:07:40;;;;;;;0.65;0.60;;;;;;;-141.23;100.00;62281.09;5077118;28;20497;-71
2022/10/05 09:10:31;;;;;;;0.93;0.68;;;;;;;-141.23;100.00;62281.09;5019421;28;20043;-72
2022/10/05 09:13:15;;;;;;;;;;;;;;;-141.23;100.00;62281.09;5060162;28;20070;-71
2022/10/05 09:16:02;;;;;;;0.50;0.50;;;;;;;-141.23;100.00;62281.09;5059173;28;20337;-71
2022/10/05 09:18:46;;;;;;;0.60;0.60;;;;;;;-141.23;100.00;62281.09;5077134;28;20039;-71
2022/10/05 09:21:44;;;;;;;0.60;0.57;;;;;;;-141.23;100.00;62281.09;5077184;28;20060;-71
2022/10/05 09:24:13;;;;;;;1.25;0.60;;;;;;;-141.23;100.00;62281.09;5055607;28;20145;-72
2022/10/05 09:27:00;;;;;;;0.60;0.60;;;;;;;-141.23;100.00;62281.09;5060546;28;20047;-71
2022/10/05 09:29:48;;;;;;;1.80;0.60;;;;;;;-141.23;100.00;62281.09;5042923;28;20055;-71
2022/10/05 09:32:33;;;;;;;2.05;1.55;;;;;;;-141.23;100.00;62281.09;5058552;28;20052;-70
2022/10/05 09:35:23;;;;;;;1.05;0.90;;;;;;;-141.23;100.00;62281.09;5058863;28;20070;-70
2022/10/05 09:38:26;;;;;;;1.20;0.57;;;;;;;-141.23;100.00;62281.09;5075255;28;20039;-70
2022/10/05 09:41:16;;;;;;;1.70;0.52;;;;;;;-141.23;100.00;62281.09;5059067;28;20043;-71
2022/10/05 09:43:57;;;;;;;0.65;0.50;;;;;;;-141.23;100.00;62281.09;5061694;28;20039;-70
2022/10/05 09:46:54;;;;;;;1.40;0.80;;;;;;;-141.23;100.00;62281.09;5061898;28;20136;-71
2022/10/05 09:49:47;;;;;;;1.50;0.57;;;;;;;-141.23;100.00;62281.09;5063375;28;20051;-71
2022/10/05 09:52:47;;;;;;;1.27;1.05;;;;;;;-141.23;100.00;62281.09;5062726;28;20121;-71
2022/10/05 09:55:59;;;;;;;0.50;0.50;;;;;;;-141.23;100.00;62281.09;5061560;28;20078;-71
2022/10/05 09:59:02;;;;;;;0.45;0.45;;;;;;;-141.23;100.00;62281.09;5061313;28;20166;-71
2022/10/05 10:02:08;;;;;;;0.50;0.40;;;;;;;-141.23;100.00;62281.09;5062739;28;20047;-72
2022/10/05 10:05:00;;;;;;;1.02;0.57;;;;;;;-141.23;100.00;62281.09;5063474;28;20151;-71
2022/10/05 10:07:40;;;;;;;0.47;0.40;;;;;;;-141.23;100.00;62281.09;5097289;28;20050;-71
2022/10/05 10:10:47;;;;;;;0.50;0.50;;;;;;;-141.23;100.00;62281.09;5080962;28;20040;-72
2022/10/05 10:13:52;;;;;;;1.42;0.60;;;;;;;-141.23;100.00;62281.09;5081098;28;20134;-70
2022/10/05 10:16:34;;;;;;;0.50;0.50;;;;;;;-141.23;100.00;62281.09;5063243;28;20427;-71
2022/10/05 10:19:51;;;;;;;1.27;0.60;;;;;;;-141.23;100.00;62281.09;5065522;28;20043;-75
2022/10/05 10:22:35;;;;;;;0.50;0.50;;;;;;;-141.23;100.00;62281.09;5021743;28;20043;-71
2022/10/05 10:25:15;;;;;;;0.73;0.60;;;;;;;-141.23;100.00;62281.09;5080138;28;20457;-72
2022/10/05 10:27:53;;;;;;;0.90;0.40;;;;;;;-141.23;100.00;62281.09;5063328;28;20051;-71
2022/10/05 10:30:52;;;;;;;0.77;0.50;;;;;;;-141.23;100.00;62281.09;5063058;28;20048;-71
2022/10/05 10:33:36;;;;;;;0.30;0.30;;;;;;;-141.23;100.00;62281.09;5080197;28;20378;-71
2022/10/05 10:36:19;;;;;;;0.57;0.57;;;;;;;-141.23;100.00;62281.09;5080385;28;20051;-70
2022/10/05 10:39:27;;;;;;;0.47;0.47;;;;;;;-141.23;100.00;62281.09;5080983;28;20501;-70
2022/10/05 10:42:15;;;;;;;3.30;0.50;;;;;;;-141.23;100.00;62281.09;5022632;28;20043;-70
2022/10/05 10:44:55;;;;;;;0.68;0.40;;;;;;;-141.23;100.00;62281.09;5059533;28;20047;-71
2022/10/05 10:47:27;;;;;;;0.90;0.80;;;;;;;-141.23;100.00;62281.09;5060257;28;20044;-70
2022/10/05 10:50:14;;;;;;;2.45;0.90;;;;;;;-141.23;100.00;62281.09;5043369;28;20084;-70
2022/10/05 10:52:59;;;;;;;1.55;1.10;;;;;;;-141.23;100.00;62281.09;5094904;28;20054;-69
2022/10/05 10:55:44;;;;;;;1.65;1.30;;;;;;;-141.23;100.00;62281.09;5044565;28;20618;-70
2022/10/05 10:58:25;;;;;;;2.03;1.33;;;;;;;-141.23;100.00;62281.09;5094742;28;20421;-69
2022/10/05 11:00:57;;;;;;;;;;;;;;;-141.23;100.00;62281.09;5042465;28;20052;-69
2022/10/05 11:03:47;;;;;;;3.10;0.80;;;;;;;-141.23;100.00;62281.09;5042318;28;20335;-70
2022/10/05 11:06:38;;;;;;;1.03;0.70;;;;;;;-141.23;100.00;62281.09;5075490;28;20185;-69
2022/10/05 11:09:19;;;;;;;3.00;0.80;;;;;;;-141.23;100.00;62281.09;5042219;28;20082;-70
2022/10/05 11:12:06;;;;;;;2.38;0.70;;;;;;;-141.23;100.00;62281.09;5057056;28;20147;-69
2022/10/05 11:15:04;;;;;;;5.63;0.90;;;;;;;-141.23;100.00;62281.09;5058585;28;20052;-69
2022/10/05 11:17:50;;;;;;;1.73;0.70;;;;;;;-141.23;100.00;62281.09;5058715;28;20868;-70
2022/10/05 11:20:31;;;;;;;0.75;0.60;;;;;;;-141.23;100.00;62281.09;5059060;28;20402;-69
2022/10/05 11:23:16;;;;;;;;;;;;;;;-141.23;100.00;62281.09;5039595;28;20398;-69
2022/10/05 11:26:00;;;;;;;1.38;0.80;;;;;;;-141.23;100.00;62281.09;5039366;28;19920;-67
2022/10/05 11:28:44;;;;;;;1.10;0.80;;;;;;;-141.23;100.00;62281.09;5054970;28;20040;-69
2022/10/05 11:31:19;;;;;;;0.98;0.90;;;;;;;-141.23;100.00;62281.09;5071907;28;20056;-68
2022/10/05 11:34:04;;;;;;;2.83;0.80;;;;;;;-141.23;100.00;62281.09;5054886;28;20059;-70
2022/10/05 11:36:33;;;;;;;1.83;0.90;;;;;;;-141.23;100.00;62281.09;5056995;28;20041;-69
2022/10/05 11:39:05;;;;;;;2.83;0.95;;;;;;;-141.23;100.00;62281.09;5075694;28;20048;-69
2022/10/05 11:41:46;;;;;;;2.80;0.95;;;;;;;-141.23;100.00;62281.09;5076730;28;20044;-69
2022/10/05 11:44:40;;;;;;;7.28;1.40;;;;;;;-141.23;100.00;62281.09;5058643;28;20052;-68
2022/10/05 11:47:31;;;;;;;1.98;1.10;;;;;;;-141.23;100.00;62281.09;5092549;28;20483;-69
2022/10/05 11:50:10;;;;;;;1.83;1.40;;;;;;;-141.23;100.00;62281.09;5041997;28;20036;-69
2022/10/05 11:52:39;;;;;;;3.03;1.17;;;;;;;-141.23;100.00;62281.09;5074763;28;20059;-69
2022/10/05 11:55:20;;;;;;;1.20;0.93;;;;;;;-141.23;100.00;62281.09;5041689;28;20043;-71
2022/10/05 11:57:55;;;;;;;;;;;;;;;-141.23;100.00;62281.09;5058922;28;20208;-70
2022/10/05 12:00:24;;;;;;;1.80;0.75;;;;;;;-141.23;100.00;62281.09;5041507;28;19922;-70
2022/10/05 12:02:56;;;;;;;1.40;0.85;;;;;;;-141.23;100.00;62281.09;5091360;28;20075;-69
2022/10/05 12:05:44;;;;;;;1.50;1.00;;;;;;;-141.23;100.00;62281.09;5057911;28;20043;-69
2022/10/05 12:08:50;;;;;;;0.93;0.80;;;;;;;-141.23;100.00;62281.09;5058252;28;20115;-70
2022/10/05 12:11:30;;;;;;;1.65;1.17;;;;;;;-141.23;100.00;62281.09;5060349;28;20101;-69
2022/10/05 12:14:09;;;;;;;2.47;0.90;;;;;;;-141.23;100.00;62281.09;5059581;28;20048;-69
2022/10/05 12:16:40;;;;;;;2.80;1.00;;;;;;;-141.23;100.00;62281.09;5059120;28;20044;-69
2022/10/05 12:19:09;;;;;;;;;;;;;;;-141.23;100.00;62281.09;5076860;28;20143;-69
2022/10/05 12:21:40;;;;;;;1.65;0.80;;;;;;;-141.23;100.00;62281.09;5057290;28;19924;-69
2022/10/05 12:24:14;;;;;;;3.42;0.73;;;;;;;-141.23;100.00;62281.09;5057036;28;20043;-68
2022/10/05 12:26:56;;;;;;;1.20;0.90;;;;;;;-141.23;100.00;62281.09;5057851;28;20059;-68